Time;durP1;ratioP1;P1;durP2;ratioP2;P2;SDS_P1;SDS_P2;PMS_P1;PMS_P2;Temp;Humidity;BMP_temperature;BMP_pressure;BME280_temperature;BME280_humidity;BME280_pressure;Samples;Min_cycle;Max_cycle;Signal;HPM_P1;HPM_P2
2022/01/24 00:00:48;;;;;;;34.92;18.92;;;;;;;3.29;61.78;100080.81;5097089;28;20078;-47
2022/01/24 00:03:13;;;;;;;34.53;19.05;;;;;;;3.25;62.20;100084.59;5098397;28;20039;-48
2022/01/24 00:05:40;;;;;;;37.55;18.80;;;;;;;3.17;62.74;100085.19;5097121;28;20028;-48
2022/01/24 00:08:06;;;;;;;35.05;19.42;;;;;;;3.04;62.89;100087.09;5098419;28;20024;-48
2022/01/24 00:10:34;;;;;;;35.08;19.65;;;;;;;3.02;63.08;100080.34;5098290;28;20498;-47
2022/01/24 00:13:25;;;;;;;39.15;20.15;;;;;;;2.96;63.19;100085.06;5098356;28;20046;-48
2022/01/24 00:26:57;;;;;;;101.15;66.40;;;;;;;2.77;64.12;100080.44;5098554;28;20039;-49
2022/01/24 00:29:25;;;;;;;50.83;29.92;;;;;;;2.76;64.54;100081.38;5096942;28;20106;-48
2022/01/24 00:31:52;;;;;;;64.15;37.60;;;;;;;2.82;64.47;100089.63;5096808;28;20032;-47
2022/01/24 00:34:18;;;;;;;51.97;34.83;;;;;;;2.80;64.71;100088.00;5097138;28;20048;-48
2022/01/24 00:36:48;;;;;;;47.03;29.83;;;;;;;2.71;63.96;100082.69;5097863;28;20143;-48
2022/01/24 00:39:15;;;;;;;46.85;29.33;;;;;;;2.49;64.49;100091.22;5098172;28;20061;-49
2022/01/24 00:46:59;;;;;;;46.72;27.35;;;;;;;2.15;66.61;100096.28;5098007;28;20131;-49
2022/01/24 00:54:43;;;;;;;48.45;27.85;;;;;;;1.98;67.51;100087.16;5098025;28;20089;-49
2022/01/24 00:57:09;;;;;;;53.83;31.25;;;;;;;1.95;67.94;100087.34;5096589;28;20460;-50
2022/01/24 00:59:35;;;;;;;48.53;23.75;;;;;;;1.94;68.01;100093.50;5094458;28;20393;-50
2022/01/24 01:02:02;;;;;;;48.45;24.60;;;;;;;1.97;68.38;100081.16;5094611;28;20016;-49
2022/01/24 01:04:37;;;;;;;38.80;18.02;;;;;;;2.11;67.71;100085.34;5095261;28;20027;-48
2022/01/24 01:07:06;;;;;;;48.00;28.20;;;;;;;2.36;67.21;100078.34;5094667;28;20021;-47
2022/01/24 01:20:36;;;;;;;43.17;25.33;;;;;;;2.39;67.49;100076.38;5094489;28;20441;-47
2022/01/24 01:23:02;;;;;;;52.00;26.25;;;;;;;2.43;67.38;100071.75;5094305;28;20073;-48
2022/01/24 01:25:27;;;;;;;57.40;27.50;;;;;;;2.23;66.83;100078.41;5094312;28;20020;-49
2022/01/24 01:27:54;;;;;;;47.50;25.85;;;;;;;1.97;67.82;100070.78;5092955;28;20028;-49
2022/01/24 01:30:25;;;;;;;42.63;24.48;;;;;;;2.02;68.09;100069.63;5094181;28;20508;-48
2022/01/24 01:33:02;;;;;;;48.05;27.67;;;;;;;1.98;67.71;100075.03;5094169;28;20024;-49
2022/01/24 01:54:46;;;;;;;54.95;27.63;;;;;;;1.23;71.44;100075.16;5094042;28;20421;-48
2022/01/24 01:57:16;;;;;;;61.45;30.15;;;;;;;1.33;71.36;100070.19;5092406;28;20409;-48
2022/01/24 01:59:42;;;;;;;76.47;33.17;;;;;;;1.39;71.18;100073.16;5093662;28;20032;-48
2022/01/24 02:02:08;;;;;;;93.00;32.75;;;;;;;1.42;71.91;100072.13;5092164;28;20494;-48
2022/01/24 02:04:34;;;;;;;59.00;29.02;;;;;;;1.40;71.44;100066.22;5093548;28;20032;-48
2022/01/24 02:07:02;;;;;;;51.05;27.23;;;;;;;1.46;71.01;100070.16;5093415;28;20099;-48
2022/01/24 02:09:34;;;;;;;69.15;29.77;;;;;;;1.45;71.15;100069.34;5093429;28;20020;-48
2022/01/24 02:12:00;;;;;;;54.15;30.88;;;;;;;1.43;71.45;100072.94;5093154;28;20024;-49
2022/01/24 02:14:33;;;;;;;54.42;29.73;;;;;;;1.54;71.17;100066.09;5093348;28;20034;-47
2022/01/24 02:17:04;;;;;;;55.70;29.83;;;;;;;1.64;71.07;100066.25;5093266;28;20028;-49
2022/01/24 02:19:48;;;;;;;65.18;31.67;;;;;;;1.68;70.58;100070.28;5093333;28;20111;-48
2022/01/24 02:24:56;;;;;;;54.95;28.17;;;;;;;1.79;70.14;100061.75;5093215;28;20448;-47
2022/01/24 02:27:24;;;;;;;54.83;28.20;;;;;;;1.98;69.69;100066.44;5093125;28;20031;-48
2022/01/24 02:30:12;;;;;;;53.83;29.38;;;;;;;2.22;69.07;100061.25;5093090;28;20456;-48
2022/01/24 02:32:39;;;;;;;63.10;30.70;;;;;;;2.56;68.29;100054.38;5093080;28;20024;-47
2022/01/24 02:35:06;;;;;;;41.45;21.48;;;;;;;2.60;67.34;100055.78;5091645;28;20028;-49
2022/01/24 02:37:32;;;;;;;42.22;23.02;;;;;;;2.71;67.18;100048.97;5092937;28;20493;-48
2022/01/24 02:40:08;;;;;;;52.60;23.85;;;;;;;2.84;66.07;100049.72;5091331;28;20047;-49
2022/01/24 02:53:23;;;;;;;50.60;26.77;;;;;;;2.39;66.71;100057.38;5092790;28;20106;-49
2022/01/24 02:55:49;;;;;;;45.80;26.92;;;;;;;2.32;66.71;100046.66;5092580;28;20149;-47
2022/01/24 02:58:16;;;;;;;40.03;20.77;;;;;;;2.31;66.61;100052.78;5092562;28;20028;-48
2022/01/24 03:00:45;;;;;;;35.60;20.20;;;;;;;2.52;65.86;100050.38;5092482;28;20550;-48
2022/01/24 03:03:12;;;;;;;41.50;16.38;;;;;;;2.63;65.27;100038.38;5092465;28;20096;-49
2022/01/24 03:05:38;;;;;;;64.90;21.58;;;;;;;2.44;64.94;100052.72;5091116;28;20048;-48
2022/01/24 03:08:03;;;;;;;52.30;23.85;;;;;;;2.33;65.86;100045.72;5092408;28;20091;-49
2022/01/24 03:13:32;;;;;;;87.40;23.35;;;;;;;2.23;66.62;100051.69;5082941;28;20040;-49
2022/01/24 03:16:01;;;;;;;53.30;25.98;;;;;;;2.24;66.73;100045.59;5090944;28;20039;-49
2022/01/24 03:18:28;;;;;;;77.22;22.92;;;;;;;2.07;66.53;100032.09;5092150;28;20032;-50
2022/01/24 03:20:53;;;;;;;53.40;22.90;;;;;;;1.83;67.44;100033.88;5090786;28;20020;-50
2022/01/24 03:23:21;;;;;;;72.63;23.05;;;;;;;1.66;67.58;100028.16;5091493;28;20020;-48
2022/01/24 03:25:47;;;;;;;61.38;23.63;;;;;;;1.54;68.38;100029.84;5090756;28;20024;-49
2022/01/24 03:28:13;;;;;;;60.85;21.52;;;;;;;1.47;68.45;100031.25;5092135;28;20027;-47
2022/01/24 03:30:40;;;;;;;75.88;23.85;;;;;;;1.52;68.81;100034.31;5092063;28;20028;-48
2022/01/24 03:33:07;;;;;;;47.00;21.23;;;;;;;1.64;69.06;100035.22;5092008;28;20024;-49
2022/01/24 03:35:33;;;;;;;46.97;21.92;;;;;;;1.69;68.25;100024.53;5091962;28;20513;-48
2022/01/24 03:37:59;;;;;;;88.05;24.38;;;;;;;1.71;68.34;100036.44;5091735;28;20105;-49
2022/01/24 03:40:25;;;;;;;58.75;24.65;;;;;;;1.73;68.53;100029.38;5090632;28;20031;-48
2022/01/24 03:42:51;;;;;;;55.67;23.05;;;;;;;1.80;68.59;100029.75;5091791;28;20084;-47
2022/01/24 03:45:24;;;;;;;48.70;20.42;;;;;;;1.89;68.38;100030.84;5090536;28;20023;-47
2022/01/24 03:50:43;;;;;;;90.85;26.92;;;;;;;1.92;67.61;100028.06;5075415;28;20054;-47
2022/01/24 03:53:08;;;;;;;53.15;25.52;;;;;;;1.87;67.79;100024.97;5091823;28;20016;-47
2022/01/24 03:55:34;;;;;;;45.80;24.17;;;;;;;1.88;67.66;100021.44;5091746;28;20032;-48
2022/01/24 03:58:01;;;;;;;66.07;25.58;;;;;;;1.86;67.51;100020.72;5091770;28;20020;-48
2022/01/24 04:00:27;;;;;;;47.13;20.55;;;;;;;1.68;67.38;100013.34;5091752;28;20047;-48
2022/01/24 04:02:52;;;;;;;47.85;24.17;;;;;;;1.56;67.38;100014.22;5091689;28;20104;-48
2022/01/24 04:05:18;;;;;;;35.88;20.75;;;;;;;1.47;67.18;100017.47;5091627;28;20028;-48
2022/01/24 04:07:44;;;;;;;37.47;22.40;;;;;;;1.45;67.53;100007.25;5090301;28;20444;-47
2022/01/24 04:10:12;;;;;;;40.92;21.73;;;;;;;1.48;68.10;100011.38;5090330;28;20024;-48
2022/01/24 04:12:40;;;;;;;44.15;23.90;;;;;;;1.59;68.29;100017.44;5091919;28;20028;-49
2022/01/24 04:15:23;;;;;;;39.50;20.60;;;;;;;1.74;67.49;100018.09;5091573;28;20028;-48
2022/01/24 04:17:58;;;;;;;53.78;25.90;;;;;;;1.83;67.01;100018.34;5091581;28;20065;-49
2022/01/24 04:23:16;;;;;;;54.67;24.38;;;;;;;2.00;67.32;100021.38;5091549;28;20050;-51
2022/01/24 04:25:42;;;;;;;54.83;23.20;;;;;;;1.94;66.46;100024.41;5091545;28;20034;-50
2022/01/24 04:28:08;;;;;;;81.95;22.52;;;;;;;1.90;66.42;100024.75;5091474;28;20099;-50
2022/01/24 04:30:33;;;;;;;47.67;23.98;;;;;;;1.85;66.95;100026.84;5091475;28;20056;-49
2022/01/24 04:32:59;;;;;;;49.88;22.58;;;;;;;1.87;66.63;100032.72;5091789;28;20055;-50
2022/01/24 04:35:25;;;;;;;49.67;24.90;;;;;;;1.92;67.27;100031.47;5093931;28;20039;-49
2022/01/24 04:37:51;;;;;;;45.28;23.17;;;;;;;2.12;67.64;100035.19;5094963;28;20024;-47
2022/01/24 04:40:16;;;;;;;46.63;23.70;;;;;;;2.50;67.29;100035.88;5095123;28;20431;-48
2022/01/24 04:42:50;;;;;;;56.92;24.95;;;;;;;2.66;66.25;100030.38;5095153;28;20047;-49
2022/01/24 04:45:38;;;;;;;51.45;26.40;;;;;;;2.80;66.64;100028.38;5095092;28;20032;-48
2022/01/24 04:51:26;;;;;;;55.10;25.33;;;;;;;2.97;65.47;100026.25;5095016;28;20059;-51
2022/01/24 04:56:06;;;;;;;48.38;22.67;;;;;;;3.27;64.60;100017.84;5094950;28;20529;-47
2022/01/24 04:58:31;;;;;;;45.95;23.35;;;;;;;3.14;63.32;100024.94;5094836;28;20026;-47
2022/01/24 05:00:57;;;;;;;45.42;23.75;;;;;;;2.87;63.66;100020.94;5094722;28;20017;-47
2022/01/24 05:03:23;;;;;;;41.85;22.90;;;;;;;2.70;63.74;100022.25;5094791;28;20020;-49
2022/01/24 05:05:50;;;;;;;48.83;19.77;;;;;;;2.54;63.67;100027.75;5094616;28;20529;-49
2022/01/24 05:08:16;;;;;;;32.22;21.75;;;;;;;2.34;64.31;100023.25;5094674;28;20028;-48
2022/01/24 05:10:57;;;;;;;37.58;21.15;;;;;;;2.35;64.68;100022.28;5094624;28;20073;-48
2022/01/24 05:24:09;;;;;;;48.95;20.13;;;;;;;1.83;64.74;100024.34;5094430;28;20046;-48
2022/01/24 05:26:35;;;;;;;62.72;20.30;;;;;;;1.70;64.96;100021.84;5094290;28;20099;-48
2022/01/24 05:29:00;;;;;;;174.20;22.05;;;;;;;1.51;65.60;100014.56;5094270;28;20032;-49
2022/01/24 05:31:26;;;;;;;67.93;19.98;;;;;;;1.32;65.80;100025.38;5094206;28;20062;-48
2022/01/24 05:33:52;;;;;;;117.85;22.83;;;;;;;1.18;66.12;100023.75;5092835;28;20084;-48
2022/01/24 05:36:17;;;;;;;117.90;24.25;;;;;;;1.14;66.81;100026.66;5094034;28;20012;-47
2022/01/24 05:38:43;;;;;;;61.85;22.42;;;;;;;1.21;67.77;100017.56;5093839;28;20074;-47
2022/01/24 05:41:09;;;;;;;170.65;27.35;;;;;;;1.33;67.57;100018.47;5092604;28;20024;-48
2022/01/24 05:43:35;;;;;;;46.70;23.75;;;;;;;1.39;67.11;100018.84;5094039;28;20024;-48
2022/01/24 05:46:01;;;;;;;61.10;22.05;;;;;;;1.70;67.53;100026.19;5093247;28;20494;-48
2022/01/24 05:48:27;;;;;;;80.55;23.40;;;;;;;2.03;66.81;100024.66;5093874;28;20077;-49
2022/01/24 05:50:52;;;;;;;74.63;22.38;;;;;;;2.28;66.56;100018.53;5092537;28;20072;-49
2022/01/24 05:53:18;;;;;;;64.47;21.58;;;;;;;2.57;65.69;100024.91;5094045;28;20482;-49
2022/01/24 05:55:44;;;;;;;52.92;20.30;;;;;;;2.72;64.98;100017.75;5093734;28;20035;-49
2022/01/24 05:58:10;;;;;;;73.68;23.65;;;;;;;2.85;64.93;100020.22;5093663;28;20028;-48
2022/01/24 06:00:35;;;;;;;58.17;22.50;;;;;;;2.98;64.66;100027.91;5093644;28;20504;-48
2022/01/24 06:03:01;;;;;;;44.90;22.42;;;;;;;3.14;63.98;100030.97;5093479;28;20042;-50
2022/01/24 06:05:27;;;;;;;77.03;22.10;;;;;;;3.18;63.04;100037.56;5092221;28;20028;-50
2022/01/24 06:07:54;;;;;;;45.67;21.60;;;;;;;3.14;63.35;100035.31;5093540;28;20027;-50
2022/01/24 06:10:20;;;;;;;50.35;21.15;;;;;;;3.23;62.96;100033.78;5092123;28;20020;-51
2022/01/24 06:12:46;;;;;;;77.68;21.77;;;;;;;3.28;62.82;100032.47;5092087;28;20035;-50
2022/01/24 06:15:12;;;;;;;38.55;20.05;;;;;;;3.30;62.92;100028.00;5093369;28;20042;-50
2022/01/24 06:17:37;;;;;;;41.60;22.55;;;;;;;3.37;62.31;100025.75;5093296;28;20513;-50
2022/01/24 06:20:05;;;;;;;46.70;22.38;;;;;;;3.41;62.50;100024.56;5093250;28;20085;-51
2022/01/24 06:22:31;;;;;;;47.88;21.23;;;;;;;3.49;61.94;100029.16;5093081;28;20016;-51
2022/01/24 06:24:56;;;;;;;45.30;22.52;;;;;;;3.49;62.19;100026.53;5093165;28;20077;-50
2022/01/24 06:27:22;;;;;;;63.72;23.02;;;;;;;3.49;61.36;100024.78;5093068;28;20051;-50
2022/01/24 06:29:48;;;;;;;66.55;24.08;;;;;;;3.38;61.70;100014.41;5091726;28;20031;-49
2022/01/24 06:32:13;;;;;;;52.22;23.90;;;;;;;3.15;61.35;100013.63;5091709;28;20464;-48
2022/01/24 06:34:39;;;;;;;38.83;23.05;;;;;;;3.03;61.74;100025.78;5092958;28;20020;-48
2022/01/24 06:37:05;;;;;;;43.95;23.63;;;;;;;3.09;62.26;100021.88;5093206;28;20105;-47
2022/01/24 06:39:31;;;;;;;56.65;23.35;;;;;;;3.23;61.84;100023.41;5092589;28;20105;-48
2022/01/24 06:42:13;;;;;;;44.75;24.73;;;;;;;3.03;61.81;100020.59;5092788;28;20020;-48
2022/01/24 06:44:40;;;;;;;120.03;24.00;;;;;;;3.05;61.87;100020.47;5092837;28;20028;-48
2022/01/24 06:47:06;;;;;;;52.33;24.05;;;;;;;3.03;61.84;100030.97;5091477;28;20057;-48
2022/01/24 06:49:32;;;;;;;50.92;24.23;;;;;;;3.02;62.07;100029.31;5092686;28;20401;-48
2022/01/24 06:51:58;;;;;;;53.40;24.42;;;;;;;3.02;61.79;100024.13;5091366;28;20035;-47
2022/01/24 06:54:23;;;;;;;44.72;24.00;;;;;;;2.99;61.96;100027.78;5091332;28;20115;-48
2022/01/24 06:56:49;;;;;;;98.00;26.88;;;;;;;2.79;61.37;100031.06;5091622;28;20031;-48
2022/01/24 06:59:15;;;;;;;81.03;34.95;;;;;;;2.47;61.60;100036.09;5092587;28;20020;-49
2022/01/24 07:01:41;;;;;;;82.63;30.40;;;;;;;2.22;62.87;100031.94;5092411;28;20059;-48
2022/01/24 07:04:06;;;;;;;71.47;26.58;;;;;;;2.28;63.40;100039.25;5092487;28;20080;-50
2022/01/24 07:06:32;;;;;;;59.83;23.50;;;;;;;2.33;63.16;100043.13;5091055;28;20032;-50
2022/01/24 07:08:58;;;;;;;54.22;23.13;;;;;;;2.32;63.28;100041.47;5092423;28;20027;-47
2022/01/24 07:11:24;;;;;;;38.72;21.98;;;;;;;2.52;63.50;100040.00;5092331;28;20557;-49
2022/01/24 07:13:50;;;;;;;100.80;47.60;;;;;;;2.63;62.08;100046.97;5091035;28;20034;-47
2022/01/24 07:16:17;;;;;;;51.88;25.23;;;;;;;2.67;62.90;100044.97;5092330;28;20024;-49
2022/01/24 07:18:58;;;;;;;40.70;22.02;;;;;;;2.72;62.27;100048.06;5092214;28;20016;-48
2022/01/24 07:21:24;;;;;;;64.25;23.48;;;;;;;2.71;62.45;100052.38;5092210;28;20486;-47
2022/01/24 07:23:50;;;;;;;43.20;22.42;;;;;;;2.81;62.10;100055.13;5090905;28;20044;-48
2022/01/24 07:26:16;;;;;;;44.25;23.50;;;;;;;2.98;62.04;100054.66;5092125;28;20460;-48
2022/01/24 07:28:44;;;;;;;80.50;24.90;;;;;;;3.12;61.60;100055.34;5092123;28;20028;-49
2022/01/24 07:31:10;;;;;;;57.00;22.67;;;;;;;3.19;61.94;100059.13;5092076;28;20028;-47
2022/01/24 07:33:36;;;;;;;95.38;24.15;;;;;;;3.23;61.32;100062.31;5092061;28;20012;-48
2022/01/24 07:36:02;;;;;;;71.38;25.95;;;;;;;3.24;61.51;100063.97;5090712;28;20084;-47
2022/01/24 07:38:29;;;;;;;94.50;25.73;;;;;;;3.17;61.18;100074.00;5091742;28;20132;-48
2022/01/24 07:40:56;;;;;;;75.10;45.92;;;;;;;2.83;61.42;100061.00;5092034;28;20497;-49
2022/01/24 07:43:22;;;;;;;80.18;45.83;;;;;;;2.64;61.45;100065.94;5092229;28;20024;-48
2022/01/24 07:45:49;;;;;;;94.32;52.47;;;;;;;2.45;61.78;100056.94;5090618;28;20023;-49
2022/01/24 07:48:16;;;;;;;236.07;181.30;;;;;;;2.17;62.04;100061.59;5090573;28;20066;-48
2022/01/24 07:50:46;;;;;;;129.02;38.97;;;;;;;2.24;62.82;100064.53;5091866;28;20550;-49
2022/01/24 07:53:13;;;;;;;51.08;29.90;;;;;;;2.29;62.85;100067.59;5092186;28;20492;-47
2022/01/24 07:55:39;;;;;;;86.32;56.50;;;;;;;2.59;62.66;100059.31;5091801;28;20220;-48
2022/01/24 07:58:06;;;;;;;47.38;29.48;;;;;;;3.13;62.05;100059.59;5091799;28;20111;-48
2022/01/24 08:00:33;;;;;;;59.17;37.30;;;;;;;3.57;61.03;100060.50;5090352;28;20502;-48
2022/01/24 08:02:59;;;;;;;57.75;40.53;;;;;;;3.93;60.08;100063.72;5090356;28;20020;-50
2022/01/24 08:05:26;;;;;;;57.83;27.83;;;;;;;4.08;59.34;100064.25;5091694;28;20035;-50
2022/01/24 08:07:52;;;;;;;58.40;27.30;;;;;;;4.23;59.15;100062.19;5091906;28;20024;-49
2022/01/24 08:10:18;;;;;;;58.67;28.95;;;;;;;4.32;59.07;100059.63;5095742;28;20020;-50
2022/01/24 08:12:44;;;;;;;48.88;27.95;;;;;;;4.38;58.55;100063.50;5095799;28;20028;-50
2022/01/24 08:15:14;;;;;;;42.58;24.17;;;;;;;4.46;58.25;100061.09;5095774;28;20514;-51
2022/01/24 08:17:41;;;;;;;69.47;26.15;;;;;;;4.67;58.23;100060.25;5095652;28;20103;-51
2022/01/24 08:20:08;;;;;;;277.70;243.55;;;;;;;4.82;57.81;100053.78;5094254;28;20026;-51
2022/01/24 08:22:34;;;;;;;111.05;78.10;;;;;;;4.99;57.81;100054.97;5095461;28;20062;-50
2022/01/24 08:25:03;;;;;;;93.57;66.25;;;;;;;5.14;57.00;100061.47;5094379;28;20020;-50
2022/01/24 08:27:30;;;;;;;74.38;30.45;;;;;;;5.12;56.48;100060.75;5095452;28;20028;-51
2022/01/24 08:29:56;;;;;;;57.83;26.90;;;;;;;5.01;57.21;100055.66;5095414;28;20024;-50
2022/01/24 08:32:21;;;;;;;63.38;23.95;;;;;;;5.16;56.70;100058.72;5095340;28;20055;-50
2022/01/24 08:34:47;;;;;;;109.15;24.17;;;;;;;5.28;56.47;100055.06;5095350;28;20474;-49
2022/01/24 08:37:13;;;;;;;50.72;23.65;;;;;;;5.26;56.41;100054.38;5095216;28;20023;-50
2022/01/24 08:39:39;;;;;;;55.20;24.13;;;;;;;5.30;56.09;100052.34;5093857;28;20051;-51
2022/01/24 08:42:17;;;;;;;49.78;25.52;;;;;;;5.49;55.65;100064.56;5095149;28;20024;-51
2022/01/24 08:47:26;;;;;;;62.35;25.02;;;;;;;5.74;55.20;100061.47;5095169;28;20379;-50
2022/01/24 08:49:52;;;;;;;84.22;24.17;;;;;;;5.65;54.91;100061.47;5093837;28;20028;-50
2022/01/24 08:52:18;;;;;;;41.15;22.27;;;;;;;5.59;55.46;100068.03;5094983;28;20024;-49
2022/01/24 08:54:44;;;;;;;55.25;25.45;;;;;;;5.91;55.18;100066.97;5094959;28;20048;-48
2022/01/24 08:57:13;;;;;;;87.25;25.10;;;;;;;6.24;53.81;100067.56;5094869;28;20048;-48
2022/01/24 08:59:39;;;;;;;40.90;22.80;;;;;;;6.36;53.59;100069.09;5094901;28;20024;-48
2022/01/24 09:02:06;;;;;;;39.38;21.85;;;;;;;6.59;53.50;100070.41;5094721;28;20397;-50
2022/01/24 09:04:32;;;;;;;44.08;21.73;;;;;;;6.75;52.77;100072.44;5093362;28;20032;-50
2022/01/24 09:07:02;;;;;;;44.83;21.75;;;;;;;6.84;52.38;100069.94;5094755;28;20048;-51
2022/01/24 09:09:28;;;;;;;51.42;25.63;;;;;;;6.96;51.97;100064.41;5093420;28;20547;-51
2022/01/24 09:11:54;;;;;;;50.25;23.83;;;;;;;7.04;51.29;100074.13;5094645;28;20028;-48
2022/01/24 09:14:19;;;;;;;36.80;19.63;;;;;;;7.00;51.64;100072.75;5094580;28;20073;-49
2022/01/24 09:16:46;;;;;;;55.33;22.58;;;;;;;6.97;51.36;100079.09;5094552;28;20055;-48
2022/01/24 09:19:12;;;;;;;35.50;21.67;;;;;;;7.19;51.50;100072.69;5094180;28;20107;-49
2022/01/24 09:21:38;;;;;;;58.88;23.05;;;;;;;7.67;51.22;100078.66;5093604;28;20580;-48
2022/01/24 09:24:04;;;;;;;52.35;23.33;;;;;;;7.82;50.44;100075.53;5093120;28;20028;-48
2022/01/24 09:26:30;;;;;;;50.00;22.60;;;;;;;7.74;50.32;100073.63;5094308;28;20697;-48
2022/01/24 09:28:56;;;;;;;58.60;22.38;;;;;;;7.65;49.39;100080.59;5110078;28;20020;-48
2022/01/24 09:31:22;;;;;;;37.00;22.40;;;;;;;7.35;49.88;100073.88;5094232;28;20035;-48
2022/01/24 09:33:50;;;;;;;62.88;24.00;;;;;;;7.36;50.83;100070.28;5094258;28;20024;-49
2022/01/24 09:36:15;;;;;;;43.08;22.33;;;;;;;7.69;50.02;100079.31;5094108;28;20020;-48
2022/01/24 09:38:41;;;;;;;43.90;21.90;;;;;;;7.77;50.22;100074.19;5093923;28;20455;-48
2022/01/24 09:41:09;;;;;;;39.05;20.95;;;;;;;8.34;50.87;100075.66;5093964;28;20024;-48
2022/01/24 09:43:35;;;;;;;55.85;20.17;;;;;;;9.86;49.42;100072.50;5094036;28;20027;-49
2022/01/24 09:46:02;;;;;;;35.45;19.88;;;;;;;10.99;47.12;100070.03;5094003;28;20046;-48
2022/01/24 09:48:29;;;;;;;33.90;19.67;;;;;;;11.99;45.72;100064.13;5093921;28;20020;-49
2022/01/24 09:50:55;;;;;;;35.08;19.80;;;;;;;13.47;44.09;100060.06;5093872;28;20032;-50
2022/01/24 09:53:23;;;;;;;55.08;21.77;;;;;;;14.60;40.72;100060.31;5093797;28;20024;-50
2022/01/24 09:55:50;;;;;;;47.20;20.25;;;;;;;15.00;38.35;100060.56;5093806;28;20020;-49
2022/01/24 09:58:17;;;;;;;28.85;20.70;;;;;;;15.17;38.81;100051.28;5093731;28;20020;-50
2022/01/24 10:00:43;;;;;;;37.45;20.58;;;;;;;15.88;37.06;100058.06;5092362;28;20410;-50
2022/01/24 10:03:12;;;;;;;32.47;21.30;;;;;;;16.20;36.02;100056.47;5093584;28;20024;-50
2022/01/24 10:05:39;;;;;;;39.40;20.08;;;;;;;16.62;35.75;100059.72;5092261;28;20405;-50
2022/01/24 10:08:25;;;;;;;30.33;18.85;;;;;;;17.25;34.63;100059.19;5092185;28;20035;-50
2022/01/24 10:10:57;;;;;;;32.65;18.67;;;;;;;17.42;34.09;100066.66;5093550;28;20035;-50
2022/01/24 10:19:11;;;;;;;27.15;18.73;;;;;;;18.78;31.59;100065.31;5093410;28;20036;-49
2022/01/24 10:21:49;;;;;;;33.72;19.45;;;;;;;19.07;30.51;100063.78;5093260;28;20035;-50
2022/01/24 10:24:41;;;;;;;32.67;20.13;;;;;;;19.15;30.21;100063.50;5093232;28;20028;-50
2022/01/24 10:27:23;;;;;;;36.40;22.33;;;;;;;19.33;30.56;100056.53;5093178;28;20020;-51
2022/01/24 10:30:10;;;;;;;32.47;20.05;;;;;;;19.31;29.76;100061.28;5093150;28;20036;-50
2022/01/24 10:32:51;;;;;;;29.92;19.73;;;;;;;18.91;30.34;100059.91;5092888;28;20039;-51
2022/01/24 10:35:43;;;;;;;35.22;18.60;;;;;;;19.34;30.48;100056.31;5093033;28;20067;-51
2022/01/24 10:38:40;;;;;;;38.70;20.15;;;;;;;19.62;30.09;100054.94;5094031;28;20060;-51
2022/01/24 10:43:45;;;;;;;28.40;19.23;;;;;;;20.11;28.41;100049.53;5092925;28;20036;-50
2022/01/24 10:46:12;;;;;;;42.47;22.63;;;;;;;19.93;28.31;100053.91;5091496;28;20055;-52
2022/01/24 10:48:44;;;;;;;29.55;21.08;;;;;;;20.12;28.57;100051.97;5092793;28;20548;-50
2022/01/24 10:51:21;;;;;;;32.63;21.35;;;;;;;20.11;27.84;100050.34;5092711;28;20032;-50
2022/01/24 10:53:57;;;;;;;35.38;21.58;;;;;;;19.37;28.58;100044.41;5092762;28;20063;-50
2022/01/24 10:56:40;;;;;;;34.55;21.33;;;;;;;19.05;28.60;100049.91;5091619;28;20028;-51
2022/01/24 10:59:06;;;;;;;23.90;19.27;;;;;;;18.31;29.23;100052.44;5092645;28;20062;-50
2022/01/24 11:01:33;;;;;;;26.67;20.77;;;;;;;17.53;30.24;100044.78;5092540;28;20052;-50
2022/01/24 11:04:00;;;;;;;28.65;20.75;;;;;;;16.71;31.45;100049.72;5092481;28;20055;-50
2022/01/24 11:06:30;;;;;;;28.45;19.67;;;;;;;15.87;33.24;100043.19;5091121;28;20038;-51
2022/01/24 11:09:19;;;;;;;27.52;19.90;;;;;;;16.33;33.08;100035.28;5091188;28;20147;-50
2022/01/24 11:11:46;;;;;;;24.92;17.88;;;;;;;16.85;31.89;100037.28;5091136;28;20038;-50
2022/01/24 11:14:16;;;;;;;27.00;19.38;;;;;;;17.20;31.20;100036.97;5091027;28;20079;-49
2022/01/24 11:16:42;;;;;;;29.15;18.38;;;;;;;17.63;30.70;100023.09;5092332;28;20504;-49
2022/01/24 11:19:15;;;;;;;21.63;18.65;;;;;;;17.77;30.04;100024.63;5092222;28;20048;-50
2022/01/24 11:21:43;;;;;;;26.35;18.42;;;;;;;17.72;29.86;100021.78;5090852;28;20122;-49
2022/01/24 11:24:16;;;;;;;25.00;18.90;;;;;;;17.85;29.93;100024.41;5092178;28;20544;-50
2022/01/24 11:26:43;;;;;;;28.08;18.48;;;;;;;17.91;30.03;100026.19;5090898;28;20032;-50
2022/01/24 11:29:10;;;;;;;24.95;18.77;;;;;;;17.90;30.02;100029.06;5092118;28;20012;-50
2022/01/24 11:31:44;;;;;;;30.90;20.10;;;;;;;17.56;30.39;100033.72;5092121;28;20035;-50
2022/01/24 11:34:20;;;;;;;33.17;18.33;;;;;;;17.60;31.21;100019.00;5092122;28;20024;-50
2022/01/24 11:36:45;;;;;;;22.15;19.33;;;;;;;17.68;30.93;100015.28;5092093;28;20402;-50
2022/01/24 11:39:11;;;;;;;30.25;18.25;;;;;;;17.78;30.96;100012.97;5091720;28;20043;-49
2022/01/24 11:41:40;;;;;;;23.27;17.85;;;;;;;17.78;30.92;100018.28;5091854;28;20050;-50
2022/01/24 11:44:10;;;;;;;23.48;17.58;;;;;;;17.84;30.65;100012.13;5091304;28;20016;-50
2022/01/24 11:46:49;;;;;;;21.35;18.52;;;;;;;17.98;30.54;100007.53;5090594;28;20051;-50
2022/01/24 11:49:27;;;;;;;23.17;19.10;;;;;;;18.13;30.63;100007.22;5090595;28;20564;-50
2022/01/24 11:52:07;;;;;;;22.00;18.00;;;;;;;18.41;30.20;99998.81;5091860;28;20024;-49
2022/01/24 11:57:36;;;;;;;21.50;18.92;;;;;;;18.58;30.03;99992.91;5091702;28;20097;-50
2022/01/24 12:00:02;;;;;;;22.88;19.88;;;;;;;18.64;29.41;99994.69;5090394;28;20054;-50
2022/01/24 12:02:30;;;;;;;27.77;21.33;;;;;;;18.46;29.46;100001.59;5091693;28;20016;-50
2022/01/24 12:05:08;;;;;;;21.17;17.83;;;;;;;18.73;29.63;99988.03;5091618;28;20021;-50
2022/01/24 12:07:42;;;;;;;24.92;19.50;;;;;;;18.93;29.03;99986.00;5091819;28;20440;-50
2022/01/24 12:10:26;;;;;;;22.73;18.15;;;;;;;18.52;29.84;99986.63;5091708;28;20032;-50
2022/01/24 12:13:17;;;;;;;26.33;19.33;;;;;;;18.56;29.69;99993.13;5091709;28;20038;-49
2022/01/24 12:15:43;;;;;;;28.90;20.60;;;;;;;18.77;29.73;99983.88;5091686;28;20751;-50
2022/01/24 12:18:19;;;;;;;20.27;18.17;;;;;;;18.62;29.96;99983.47;5090258;28;20020;-50
2022/01/24 12:20:47;;;;;;;34.30;19.40;;;;;;;18.20;30.52;99973.44;5091644;28;20119;-50
2022/01/24 12:23:25;;;;;;;25.38;20.30;;;;;;;18.01;30.89;99972.59;5090208;28;20108;-51
2022/01/24 12:26:03;;;;;;;22.40;19.38;;;;;;;17.96;31.23;99969.75;5091622;28;20024;-50
2022/01/24 12:28:42;;;;;;;25.70;20.20;;;;;;;17.98;31.12;99957.06;5091640;28;20095;-50
2022/01/24 12:31:20;;;;;;;24.67;20.27;;;;;;;18.10;30.98;99962.47;5091563;28;20028;-51
2022/01/24 12:33:55;;;;;;;22.95;19.75;;;;;;;17.84;31.57;99945.72;5091648;28;20030;-50
2022/01/24 12:37:20;;;;;;;29.63;21.13;;;;;;;17.83;31.79;99953.88;5091543;28;20107;-50
2022/01/24 12:39:53;;;;;;;25.50;20.13;;;;;;;18.12;31.56;99947.94;5085462;28;20048;-50
2022/01/24 12:43:18;;;;;;;24.10;20.23;;;;;;;18.25;31.30;99938.22;5091369;28;20077;-50
2022/01/24 12:48:15;;;;;;;24.85;19.25;;;;;;;18.59;30.88;99942.16;5091388;28;20452;-49
2022/01/24 12:50:46;;;;;;;22.25;18.92;;;;;;;18.72;30.57;99930.56;5091352;28;20020;-50
2022/01/24 12:53:14;;;;;;;26.83;19.02;;;;;;;18.86;30.59;99932.06;5091359;28;20082;-50
2022/01/24 12:55:42;;;;;;;25.55;21.40;;;;;;;18.64;30.65;99931.66;5092890;28;20066;-51
2022/01/24 12:58:08;;;;;;;23.58;19.50;;;;;;;18.43;30.74;99935.59;5094948;28;20057;-50
2022/01/24 13:00:35;;;;;;;23.92;19.45;;;;;;;18.50;30.75;99922.22;5093563;28;20468;-50
2022/01/24 13:03:01;;;;;;;22.38;19.83;;;;;;;18.75;30.58;99930.09;5093419;28;20397;-50
2022/01/24 13:05:28;;;;;;;26.90;21.23;;;;;;;18.69;30.61;99925.69;5094792;28;20016;-50
2022/01/24 13:07:56;;;;;;;25.35;19.75;;;;;;;18.48;30.59;99932.28;5094767;28;20028;-51
2022/01/24 13:10:24;;;;;;;23.70;18.45;;;;;;;18.49;30.79;99926.75;5094706;28;20055;-50